sensor_id;sensor_type;location;lat;lon;timestamp;pressure;altitude;pressure_sealevel;temperature;humidity
21956;BME280;11142;49.930;8.606;2023-03-18T00:00:23;99590.13;;;12.96;100.00
21956;BME280;11142;49.930;8.606;2023-03-18T00:02:51;99603.91;;;13.07;100.00
21956;BME280;11142;49.930;8.606;2023-03-18T00:05:19;99606.66;;;13.38;98.44
21956;BME280;11142;49.930;8.606;2023-03-18T00:07:47;99615.88;;;13.62;95.37
21956;BME280;11142;49.930;8.606;2023-03-18T00:10:15;99611.16;;;13.77;93.85
21956;BME280;11142;49.930;8.606;2023-03-18T00:12:44;99607.34;;;13.81;92.98
21956;BME280;11142;49.930;8.606;2023-03-18T00:15:13;99607.53;;;13.68;94.14
21956;BME280;11142;49.930;8.606;2023-03-18T00:17:45;99618.41;;;13.73;93.30
21956;BME280;11142;49.930;8.606;2023-03-18T00:20:14;99617.72;;;13.71;94.83
21956;BME280;11142;49.930;8.606;2023-03-18T00:22:43;99611.59;;;13.61;95.78
21956;BME280;11142;49.930;8.606;2023-03-18T00:25:12;99618.22;;;13.45;97.88
21956;BME280;11142;49.930;8.606;2023-03-18T00:27:41;99618.53;;;13.51;96.94
21956;BME280;11142;49.930;8.606;2023-03-18T00:30:09;99615.69;;;13.34;98.38
21956;BME280;11142;49.930;8.606;2023-03-18T00:32:38;99624.19;;;13.15;100.00
21956;BME280;11142;49.930;8.606;2023-03-18T00:35:08;99628.25;;;12.86;100.00
21956;BME280;11142;49.930;8.606;2023-03-18T00:37:37;99634.91;;;12.90;100.00
21956;BME280;11142;49.930;8.606;2023-03-18T00:40:06;99627.03;;;13.01;100.00
21956;BME280;11142;49.930;8.606;2023-03-18T00:42:37;99629.06;;;13.08;100.00
21956;BME280;11142;49.930;8.606;2023-03-18T00:45:13;99626.28;;;13.21;100.00
21956;BME280;11142;49.930;8.606;2023-03-18T00:47:42;99628.13;;;13.30;100.00
21956;BME280;11142;49.930;8.606;2023-03-18T00:50:11;99612.81;;;13.37;100.00
21956;BME280;11142;49.930;8.606;2023-03-18T00:52:39;99633.59;;;13.48;100.00
21956;BME280;11142;49.930;8.606;2023-03-18T00:55:08;99630.13;;;13.58;98.97
21956;BME280;11142;49.930;8.606;2023-03-18T00:57:36;99634.13;;;13.62;99.77
21956;BME280;11142;49.930;8.606;2023-03-18T01:00:04;99639.59;;;13.59;100.00
21956;BME280;11142;49.930;8.606;2023-03-18T01:02:33;99647.47;;;13.48;100.00
21956;BME280;11142;49.930;8.606;2023-03-18T01:05:01;99645.94;;;13.25;100.00
21956;BME280;11142;49.930;8.606;2023-03-18T01:07:31;99640.78;;;12.92;100.00
21956;BME280;11142;49.930;8.606;2023-03-18T01:09:59;99639.69;;;12.51;100.00
21956;BME280;11142;49.930;8.606;2023-03-18T01:12:33;99638.66;;;12.32;100.00
21956;BME280;11142;49.930;8.606;2023-03-18T01:15:01;99632.03;;;12.39;100.00
21956;BME280;11142;49.930;8.606;2023-03-18T01:17:31;99641.50;;;12.40;100.00
21956;BME280;11142;49.930;8.606;2023-03-18T01:20:01;99634.38;;;12.31;100.00
21956;BME280;11142;49.930;8.606;2023-03-18T01:22:32;99631.69;;;12.32;100.00
21956;BME280;11142;49.930;8.606;2023-03-18T01:25:00;99626.94;;;12.37;100.00
21956;BME280;11142;49.930;8.606;2023-03-18T01:27:34;99621.13;;;12.34;100.00
21956;BME280;11142;49.930;8.606;2023-03-18T01:30:04;99624.81;;;12.42;100.00
21956;BME280;11142;49.930;8.606;2023-03-18T01:32:34;99633.78;;;12.38;100.00
21956;BME280;11142;49.930;8.606;2023-03-18T01:35:04;99637.94;;;12.30;100.00
21956;BME280;11142;49.930;8.606;2023-03-18T01:37:35;99639.25;;;12.13;100.00
21956;BME280;11142;49.930;8.606;2023-03-18T01:40:09;99640.31;;;12.10;100.00
21956;BME280;11142;49.930;8.606;2023-03-18T01:42:39;99650.13;;;12.07;100.00
21956;BME280;11142;49.930;8.606;2023-03-18T01:45:09;99643.97;;;11.97;100.00
21956;BME280;11142;49.930;8.606;2023-03-18T01:47:40;99633.22;;;12.01;100.00
21956;BME280;11142;49.930;8.606;2023-03-18T01:50:12;99629.56;;;12.04;100.00
21956;BME280;11142;49.930;8.606;2023-03-18T01:52:43;99633.31;;;12.00;100.00
21956;BME280;11142;49.930;8.606;2023-03-18T01:55:12;99627.88;;;12.03;100.00
21956;BME280;11142;49.930;8.606;2023-03-18T01:57:42;99634.28;;;12.10;100.00
21956;BME280;11142;49.930;8.606;2023-03-18T02:00:11;99629.06;;;11.99;100.00
21956;BME280;11142;49.930;8.606;2023-03-18T02:02:54;99624.94;;;11.96;100.00
21956;BME280;11142;49.930;8.606;2023-03-18T02:05:25;99632.16;;;12.04;100.00
21956;BME280;11142;49.930;8.606;2023-03-18T02:07:55;99637.59;;;12.12;100.00
21956;BME280;11142;49.930;8.606;2023-03-18T02:10:25;99627.19;;;12.12;100.00
21956;BME280;11142;49.930;8.606;2023-03-18T02:12:58;99618.91;;;12.18;100.00
21956;BME280;11142;49.930;8.606;2023-03-18T02:15:32;99617.50;;;12.14;100.00
21956;BME280;11142;49.930;8.606;2023-03-18T02:18:02;99614.91;;;12.14;100.00
21956;BME280;11142;49.930;8.606;2023-03-18T02:20:37;99623.28;;;12.17;100.00
21956;BME280;11142;49.930;8.606;2023-03-18T02:23:18;99628.38;;;12.19;100.00
21956;BME280;11142;49.930;8.606;2023-03-18T02:25:51;99629.19;;;12.19;100.00
21956;BME280;11142;49.930;8.606;2023-03-18T02:28:22;99621.75;;;12.04;100.00
21956;BME280;11142;49.930;8.606;2023-03-18T02:30:53;99615.13;;;11.89;100.00
21956;BME280;11142;49.930;8.606;2023-03-18T02:33:23;99620.78;;;11.94;100.00
21956;BME280;11142;49.930;8.606;2023-03-18T02:35:57;99618.91;;;12.07;100.00
21956;BME280;11142;49.930;8.606;2023-03-18T02:38:30;99612.16;;;12.15;100.00
21956;BME280;11142;49.930;8.606;2023-03-18T02:41:00;99618.53;;;12.11;100.00
21956;BME280;11142;49.930;8.606;2023-03-18T02:43:39;99618.91;;;12.07;100.00
21956;BME280;11142;49.930;8.606;2023-03-18T02:46:11;99615.72;;;12.14;100.00
21956;BME280;11142;49.930;8.606;2023-03-18T02:48:42;99617.25;;;12.17;100.00
21956;BME280;11142;49.930;8.606;2023-03-18T02:51:12;99617.72;;;12.22;100.00
21956;BME280;11142;49.930;8.606;2023-03-18T02:53:44;99625.41;;;12.23;100.00
21956;BME280;11142;49.930;8.606;2023-03-18T02:56:12;99634.16;;;12.11;100.00
21956;BME280;11142;49.930;8.606;2023-03-18T02:58:43;99637.72;;;11.53;100.00
21956;BME280;11142;49.930;8.606;2023-03-18T03:01:14;99641.59;;;11.13;100.00
21956;BME280;11142;49.930;8.606;2023-03-18T03:03:42;99626.75;;;11.26;100.00
21956;BME280;11142;49.930;8.606;2023-03-18T03:06:11;99617.25;;;11.49;100.00
21956;BME280;11142;49.930;8.606;2023-03-18T03:08:40;99623.53;;;11.46;100.00
21956;BME280;11142;49.930;8.606;2023-03-18T03:11:09;99614.19;;;11.44;100.00
21956;BME280;11142;49.930;8.606;2023-03-18T03:13:38;99612.06;;;11.49;100.00
21956;BME280;11142;49.930;8.606;2023-03-18T03:16:10;99617.84;;;11.41;100.00
21956;BME280;11142;49.930;8.606;2023-03-18T03:18:39;99624.97;;;11.50;100.00
21956;BME280;11142;49.930;8.606;2023-03-18T03:21:09;99631.13;;;11.60;100.00
21956;BME280;11142;49.930;8.606;2023-03-18T03:23:37;99644.53;;;11.43;100.00
21956;BME280;11142;49.930;8.606;2023-03-18T03:26:06;99649.91;;;11.29;100.00
21956;BME280;11142;49.930;8.606;2023-03-18T03:28:34;99637.91;;;11.39;100.00
21956;BME280;11142;49.930;8.606;2023-03-18T03:31:02;99646.94;;;11.57;100.00
21956;BME280;11142;49.930;8.606;2023-03-18T03:33:32;99641.75;;;11.68;100.00
21956;BME280;11142;49.930;8.606;2023-03-18T03:36:02;99646.53;;;11.75;100.00
21956;BME280;11142;49.930;8.606;2023-03-18T03:38:30;99651.03;;;11.84;100.00
21956;BME280;11142;49.930;8.606;2023-03-18T03:40:59;99651.47;;;11.66;100.00
21956;BME280;11142;49.930;8.606;2023-03-18T03:43:28;99641.59;;;11.48;100.00
21956;BME280;11142;49.930;8.606;2023-03-18T03:45:56;99637.53;;;11.33;100.00
21956;BME280;11142;49.930;8.606;2023-03-18T03:48:24;99639.50;;;11.29;100.00
21956;BME280;11142;49.930;8.606;2023-03-18T03:50:53;99642.63;;;11.45;100.00
21956;BME280;11142;49.930;8.606;2023-03-18T03:53:23;99643.16;;;11.61;100.00
21956;BME280;11142;49.930;8.606;2023-03-18T03:55:51;99648.78;;;11.79;100.00
21956;BME280;11142;49.930;8.606;2023-03-18T03:58:22;99647.13;;;11.89;100.00
21956;BME280;11142;49.930;8.606;2023-03-18T04:00:51;99647.00;;;11.80;100.00
21956;BME280;11142;49.930;8.606;2023-03-18T04:03:20;99649.63;;;11.91;100.00
21956;BME280;11142;49.930;8.606;2023-03-18T04:05:51;99648.78;;;11.90;100.00
21956;BME280;11142;49.930;8.606;2023-03-18T04:08:24;99653.16;;;11.90;100.00
21956;BME280;11142;49.930;8.606;2023-03-18T04:10:52;99648.78;;;11.90;100.00
21956;BME280;11142;49.930;8.606;2023-03-18T04:13:24;99651.75;;;11.86;100.00
21956;BME280;11142;49.930;8.606;2023-03-18T04:15:52;99649.88;;;11.64;100.00
21956;BME280;11142;49.930;8.606;2023-03-18T04:18:21;99639.44;;;11.42;100.00
21956;BME280;11142;49.930;8.606;2023-03-18T04:20:48;99637.50;;;11.22;100.00
21956;BME280;11142;49.930;8.606;2023-03-18T04:23:35;99628.84;;;10.86;100.00
21956;BME280;11142;49.930;8.606;2023-03-18T04:26:06;99634.69;;;10.77;100.00
21956;BME280;11142;49.930;8.606;2023-03-18T04:28:36;99635.06;;;10.84;100.00
21956;BME280;11142;49.930;8.606;2023-03-18T04:31:06;99634.19;;;10.96;100.00
21956;BME280;11142;49.930;8.606;2023-03-18T04:33:35;99633.03;;;11.00;100.00
21956;BME280;11142;49.930;8.606;2023-03-18T04:36:04;99627.09;;;10.98;100.00
21956;BME280;11142;49.930;8.606;2023-03-18T04:38:32;99633.72;;;10.91;100.00
21956;BME280;11142;49.930;8.606;2023-03-18T04:41:04;99638.09;;;11.01;100.00
21956;BME280;11142;49.930;8.606;2023-03-18T04:43:33;99638.69;;;10.94;100.00
21956;BME280;11142;49.930;8.606;2023-03-18T04:46:02;99643.00;;;10.70;100.00
21956;BME280;11142;49.930;8.606;2023-03-18T04:48:33;99630.91;;;10.57;100.00
21956;BME280;11142;49.930;8.606;2023-03-18T04:51:03;99629.78;;;10.49;100.00
21956;BME280;11142;49.930;8.606;2023-03-18T04:53:34;99637.06;;;10.31;100.00
21956;BME280;11142;49.930;8.606;2023-03-18T04:56:05;99640.94;;;10.26;100.00
21956;BME280;11142;49.930;8.606;2023-03-18T04:58:46;99632.31;;;10.12;100.00
21956;BME280;11142;49.930;8.606;2023-03-18T05:01:18;99630.16;;;9.81;100.00
21956;BME280;11142;49.930;8.606;2023-03-18T05:03:47;99628.66;;;9.39;100.00
21956;BME280;11142;49.930;8.606;2023-03-18T05:06:20;99623.09;;;9.06;100.00
21956;BME280;11142;49.930;8.606;2023-03-18T05:09:05;99615.19;;;8.95;100.00
21956;BME280;11142;49.930;8.606;2023-03-18T05:11:53;99613.38;;;8.83;100.00
21956;BME280;11142;49.930;8.606;2023-03-18T05:14:28;99613.38;;;8.83;100.00
21956;BME280;11142;49.930;8.606;2023-03-18T05:16:57;99608.22;;;8.83;100.00
21956;BME280;11142;49.930;8.606;2023-03-18T05:19:27;99611.19;;;9.03;100.00
21956;BME280;11142;49.930;8.606;2023-03-18T05:22:06;99621.06;;;9.24;100.00
21956;BME280;11142;49.930;8.606;2023-03-18T05:24:35;99625.41;;;9.23;100.00
21956;BME280;11142;49.930;8.606;2023-03-18T05:27:05;99622.63;;;9.26;100.00
21956;BME280;11142;49.930;8.606;2023-03-18T05:29:38;99627.13;;;9.49;100.00
21956;BME280;11142;49.930;8.606;2023-03-18T05:32:34;99628.38;;;9.69;100.00
21956;BME280;11142;49.930;8.606;2023-03-18T05:35:07;99637.94;;;9.81;100.00
21956;BME280;11142;49.930;8.606;2023-03-18T05:37:45;99636.88;;;9.58;100.00
21956;BME280;11142;49.930;8.606;2023-03-18T05:40:15;99639.97;;;9.38;100.00
21956;BME280;11142;49.930;8.606;2023-03-18T05:43:00;99643.72;;;9.59;100.00
21956;BME280;11142;49.930;8.606;2023-03-18T05:45:36;99642.47;;;10.03;100.00
21956;BME280;11142;49.930;8.606;2023-03-18T05:48:09;99653.19;;;10.24;100.00
21956;BME280;11142;49.930;8.606;2023-03-18T05:50:46;99661.97;;;10.21;100.00
21956;BME280;11142;49.930;8.606;2023-03-18T05:53:18;99653.59;;;9.92;100.00
21956;BME280;11142;49.930;8.606;2023-03-18T05:55:51;99655.44;;;10.41;100.00
21956;BME280;11142;49.930;8.606;2023-03-18T05:58:21;99654.78;;;10.86;100.00
21956;BME280;11142;49.930;8.606;2023-03-18T06:00:57;99665.00;;;11.24;100.00
21956;BME280;11142;49.930;8.606;2023-03-18T06:03:25;99676.72;;;11.30;100.00
21956;BME280;11142;49.930;8.606;2023-03-18T06:05:53;99676.47;;;11.33;100.00
21956;BME280;11142;49.930;8.606;2023-03-18T06:08:21;99681.16;;;11.51;100.00
21956;BME280;11142;49.930;8.606;2023-03-18T06:10:51;99683.03;;;10.91;100.00
21956;BME280;11142;49.930;8.606;2023-03-18T06:13:21;99679.19;;;10.47;100.00
21956;BME280;11142;49.930;8.606;2023-03-18T06:15:54;99672.41;;;10.57;100.00
21956;BME280;11142;49.930;8.606;2023-03-18T06:18:28;99685.22;;;11.08;100.00
21956;BME280;11142;49.930;8.606;2023-03-18T06:20:56;99693.09;;;11.19;100.00
21956;BME280;11142;49.930;8.606;2023-03-18T06:23:26;99700.03;;;11.42;100.00
21956;BME280;11142;49.930;8.606;2023-03-18T06:25:54;99697.09;;;11.70;100.00
21956;BME280;11142;49.930;8.606;2023-03-18T06:28:29;99706.16;;;12.11;100.00
21956;BME280;11142;49.930;8.606;2023-03-18T06:31:01;99706.44;;;12.52;100.00
21956;BME280;11142;49.930;8.606;2023-03-18T06:33:29;99710.31;;;12.80;100.00
21956;BME280;11142;49.930;8.606;2023-03-18T06:35:58;99715.03;;;12.86;100.00
21956;BME280;11142;49.930;8.606;2023-03-18T06:38:28;99719.41;;;12.97;100.00
21956;BME280;11142;49.930;8.606;2023-03-18T06:40:59;99719.50;;;12.95;100.00
21956;BME280;11142;49.930;8.606;2023-03-18T06:43:32;99728.41;;;12.82;100.00
21956;BME280;11142;49.930;8.606;2023-03-18T06:46:00;99725.19;;;12.78;100.00
21956;BME280;11142;49.930;8.606;2023-03-18T06:48:29;99715.75;;;12.66;100.00
21956;BME280;11142;49.930;8.606;2023-03-18T06:50:59;99728.19;;;12.51;100.00
21956;BME280;11142;49.930;8.606;2023-03-18T06:53:33;99719.88;;;12.24;100.00
21956;BME280;11142;49.930;8.606;2023-03-18T06:56:04;99722.63;;;12.22;100.00
21956;BME280;11142;49.930;8.606;2023-03-18T06:58:45;99723.69;;;12.31;100.00
21956;BME280;11142;49.930;8.606;2023-03-18T07:01:16;99729.13;;;12.39;100.00
21956;BME280;11142;49.930;8.606;2023-03-18T07:03:46;99727.84;;;12.45;100.00
21956;BME280;11142;49.930;8.606;2023-03-18T07:06:14;99725.44;;;12.53;100.00
21956;BME280;11142;49.930;8.606;2023-03-18T07:08:47;99724.78;;;12.62;100.00
21956;BME280;11142;49.930;8.606;2023-03-18T07:11:15;99722.84;;;12.75;100.00
21956;BME280;11142;49.930;8.606;2023-03-18T07:13:47;99727.91;;;12.99;100.00
21956;BME280;11142;49.930;8.606;2023-03-18T07:16:22;99731.09;;;13.56;100.00
21956;BME280;11142;49.930;8.606;2023-03-18T07:18:50;99733.28;;;14.13;100.00
21956;BME280;11142;49.930;8.606;2023-03-18T07:21:18;99746.09;;;14.67;100.00
21956;BME280;11142;49.930;8.606;2023-03-18T07:23:46;99745.06;;;15.58;100.00
21956;BME280;11142;49.930;8.606;2023-03-18T07:26:16;99745.00;;;16.34;100.00
21956;BME280;11142;49.930;8.606;2023-03-18T07:28:47;99738.03;;;17.17;90.78
21956;BME280;11142;49.930;8.606;2023-03-18T07:31:15;99749.31;;;17.80;84.09
21956;BME280;11142;49.930;8.606;2023-03-18T07:33:43;99742.06;;;18.17;76.90
21956;BME280;11142;49.930;8.606;2023-03-18T07:36:11;99747.09;;;18.54;72.13
21956;BME280;11142;49.930;8.606;2023-03-18T07:38:40;99748.75;;;18.97;71.18
21956;BME280;11142;49.930;8.606;2023-03-18T07:41:08;99756.25;;;19.26;65.74
21956;BME280;11142;49.930;8.606;2023-03-18T07:43:36;99760.34;;;19.20;66.31
21956;BME280;11142;49.930;8.606;2023-03-18T07:46:06;99767.31;;;19.37;65.09
21956;BME280;11142;49.930;8.606;2023-03-18T07:48:34;99762.94;;;19.70;63.66
21956;BME280;11142;49.930;8.606;2023-03-18T07:51:02;99769.34;;;20.08;62.44
21956;BME280;11142;49.930;8.606;2023-03-18T07:53:30;99765.41;;;20.12;57.64
21956;BME280;11142;49.930;8.606;2023-03-18T07:55:59;99773.97;;;20.38;59.07
21956;BME280;11142;49.930;8.606;2023-03-18T07:58:27;99779.41;;;19.96;55.74
21956;BME280;11142;49.930;8.606;2023-03-18T08:00:55;99766.88;;;19.50;57.36
21956;BME280;11142;49.930;8.606;2023-03-18T08:03:26;99767.66;;;19.42;57.92
21956;BME280;11142;49.930;8.606;2023-03-18T08:05:54;99763.25;;;19.67;57.77
21956;BME280;11142;49.930;8.606;2023-03-18T08:08:23;99766.09;;;19.82;56.51
21956;BME280;11142;49.930;8.606;2023-03-18T08:10:55;99773.13;;;19.73;53.90
21956;BME280;11142;49.930;8.606;2023-03-18T08:13:23;99776.91;;;19.71;55.77
21956;BME280;11142;49.930;8.606;2023-03-18T08:15:51;99783.19;;;19.20;58.17
21956;BME280;11142;49.930;8.606;2023-03-18T08:18:19;99779.03;;;17.63;61.92
21956;BME280;11142;49.930;8.606;2023-03-18T08:20:51;99768.47;;;17.45;65.54
21956;BME280;11142;49.930;8.606;2023-03-18T08:23:19;99775.50;;;17.89;68.46
21956;BME280;11142;49.930;8.606;2023-03-18T08:25:47;99772.97;;;18.49;61.32
21956;BME280;11142;49.930;8.606;2023-03-18T08:28:16;99769.00;;;19.04;55.35
21956;BME280;11142;49.930;8.606;2023-03-18T08:30:46;99764.56;;;19.63;57.22
21956;BME280;11142;49.930;8.606;2023-03-18T08:33:15;99764.53;;;18.97;54.26
21956;BME280;11142;49.930;8.606;2023-03-18T08:35:43;99764.03;;;18.60;57.40
21956;BME280;11142;49.930;8.606;2023-03-18T08:38:13;99773.78;;;18.67;55.07
21956;BME280;11142;49.930;8.606;2023-03-18T08:40:41;99777.97;;;18.86;52.56
21956;BME280;11142;49.930;8.606;2023-03-18T08:43:09;99787.06;;;18.66;55.09
21956;BME280;11142;49.930;8.606;2023-03-18T08:45:39;99777.56;;;18.73;53.79
21956;BME280;11142;49.930;8.606;2023-03-18T08:48:10;99785.06;;;18.93;56.23
21956;BME280;11142;49.930;8.606;2023-03-18T08:50:38;99778.81;;;18.94;56.79
21956;BME280;11142;49.930;8.606;2023-03-18T08:53:06;99774.78;;;19.16;51.10
21956;BME280;11142;49.930;8.606;2023-03-18T08:55:36;99770.16;;;18.68;50.46
21956;BME280;11142;49.930;8.606;2023-03-18T08:58:06;99784.50;;;18.74;51.46
21956;BME280;11142;49.930;8.606;2023-03-18T09:00:34;99785.13;;;19.09;53.11
21956;BME280;11142;49.930;8.606;2023-03-18T09:03:03;99789.72;;;19.07;50.07
21956;BME280;11142;49.930;8.606;2023-03-18T09:05:31;99788.25;;;19.13;51.05
21956;BME280;11142;49.930;8.606;2023-03-18T09:08:01;99789.34;;;19.36;48.65
21956;BME280;11142;49.930;8.606;2023-03-18T09:10:30;99793.88;;;19.18;49.88
21956;BME280;11142;49.930;8.606;2023-03-18T09:13:00;99786.28;;;19.73;47.57
21956;BME280;11142;49.930;8.606;2023-03-18T09:15:32;99784.50;;;19.98;48.55
21956;BME280;11142;49.930;8.606;2023-03-18T09:18:00;99792.91;;;20.50;45.92
21956;BME280;11142;49.930;8.606;2023-03-18T09:20:37;99795.59;;;20.89;45.06
21956;BME280;11142;49.930;8.606;2023-03-18T09:23:05;99789.91;;;20.61;45.38
21956;BME280;11142;49.930;8.606;2023-03-18T09:25:34;99799.91;;;20.82;44.60
21956;BME280;11142;49.930;8.606;2023-03-18T09:28:03;99789.63;;;20.48;44.42
21956;BME280;11142;49.930;8.606;2023-03-18T09:30:31;99790.94;;;20.44;44.29
21956;BME280;11142;49.930;8.606;2023-03-18T09:32:59;99781.53;;;20.25;43.52
21956;BME280;11142;49.930;8.606;2023-03-18T09:35:28;99773.22;;;20.77;44.90
21956;BME280;11142;49.930;8.606;2023-03-18T09:37:57;99771.63;;;21.68;41.57
21956;BME280;11142;49.930;8.606;2023-03-18T09:40:25;99775.13;;;21.83;39.50
21956;BME280;11142;49.930;8.606;2023-03-18T09:43:08;99777.06;;;21.97;40.45
21956;BME280;11142;49.930;8.606;2023-03-18T09:45:43;99781.50;;;22.49;38.05
21956;BME280;11142;49.930;8.606;2023-03-18T09:48:24;99774.31;;;22.05;37.69
21956;BME280;11142;49.930;8.606;2023-03-18T09:50:58;99776.88;;;22.51;38.24
21956;BME280;11142;49.930;8.606;2023-03-18T09:53:30;99784.84;;;22.65;36.79
21956;BME280;11142;49.930;8.606;2023-03-18T09:56:03;99781.91;;;22.90;36.68
21956;BME280;11142;49.930;8.606;2023-03-18T09:58:41;99775.66;;;22.01;37.30
21956;BME280;11142;49.930;8.606;2023-03-18T10:01:12;99781.47;;;23.51;34.63
21956;BME280;11142;49.930;8.606;2023-03-18T10:03:42;99785.31;;;22.98;35.07
21956;BME280;11142;49.930;8.606;2023-03-18T10:06:14;99778.97;;;24.62;34.56
21956;BME280;11142;49.930;8.606;2023-03-18T10:08:45;99783.56;;;24.19;32.64
21956;BME280;11142;49.930;8.606;2023-03-18T10:11:17;99782.13;;;26.59;32.15
21956;BME280;11142;49.930;8.606;2023-03-18T10:13:53;99786.50;;;28.43;29.11
21956;BME280;11142;49.930;8.606;2023-03-18T10:16:24;99788.56;;;28.66;28.48
21956;BME280;11142;49.930;8.606;2023-03-18T10:19:03;99789.59;;;29.01;27.75
21956;BME280;11142;49.930;8.606;2023-03-18T10:21:34;99789.72;;;26.23;29.26
21956;BME280;11142;49.930;8.606;2023-03-18T10:24:10;99789.00;;;27.51;29.95
21956;BME280;11142;49.930;8.606;2023-03-18T10:26:45;99794.09;;;29.37;26.38
21956;BME280;11142;49.930;8.606;2023-03-18T10:29:20;99788.94;;;30.60;26.05
21956;BME280;11142;49.930;8.606;2023-03-18T10:31:57;99788.53;;;27.16;27.70
21956;BME280;11142;49.930;8.606;2023-03-18T10:34:31;99787.41;;;25.61;30.05
21956;BME280;11142;49.930;8.606;2023-03-18T10:37:03;99784.75;;;26.85;30.29
21956;BME280;11142;49.930;8.606;2023-03-18T10:39:32;99781.09;;;25.14;31.01
21956;BME280;11142;49.930;8.606;2023-03-18T10:42:12;99769.25;;;26.50;31.43
21956;BME280;11142;49.930;8.606;2023-03-18T10:44:46;99784.88;;;27.86;27.85
21956;BME280;11142;49.930;8.606;2023-03-18T10:47:16;99776.63;;;29.05;26.65
21956;BME280;11142;49.930;8.606;2023-03-18T10:49:47;99779.88;;;29.84;25.73
21956;BME280;11142;49.930;8.606;2023-03-18T10:52:18;99775.47;;;30.94;25.67
21956;BME280;11142;49.930;8.606;2023-03-18T10:54:49;99776.97;;;31.14;25.39
21956;BME280;11142;49.930;8.606;2023-03-18T10:57:18;99786.56;;;33.53;22.18
21956;BME280;11142;49.930;8.606;2023-03-18T10:59:48;99780.44;;;33.09;22.76
21956;BME280;11142;49.930;8.606;2023-03-18T11:02:18;99772.09;;;30.99;24.38
21956;BME280;11142;49.930;8.606;2023-03-18T11:04:47;99769.66;;;28.42;27.41
21956;BME280;11142;49.930;8.606;2023-03-18T11:07:17;99774.13;;;29.21;26.09
21956;BME280;11142;49.930;8.606;2023-03-18T11:09:46;99774.72;;;29.41;26.78
21956;BME280;11142;49.930;8.606;2023-03-18T11:12:15;99766.06;;;30.11;25.57
21956;BME280;11142;49.930;8.606;2023-03-18T11:14:49;99769.59;;;31.49;23.79
21956;BME280;11142;49.930;8.606;2023-03-18T11:17:19;99758.78;;;25.76;29.81
21956;BME280;11142;49.930;8.606;2023-03-18T11:19:57;99768.44;;;27.20;28.48
21956;BME280;11142;49.930;8.606;2023-03-18T11:22:26;99761.44;;;26.48;28.81
21956;BME280;11142;49.930;8.606;2023-03-18T11:25:01;99776.00;;;28.23;29.23
21956;BME280;11142;49.930;8.606;2023-03-18T11:27:34;99765.78;;;26.29;30.17
21956;BME280;11142;49.930;8.606;2023-03-18T11:30:11;99768.50;;;27.00;30.16
21956;BME280;11142;49.930;8.606;2023-03-18T11:32:54;99764.72;;;28.21;29.33
21956;BME280;11142;49.930;8.606;2023-03-18T11:35:39;99774.72;;;29.41;27.84
21956;BME280;11142;49.930;8.606;2023-03-18T11:38:12;99767.69;;;29.59;25.85
21956;BME280;11142;49.930;8.606;2023-03-18T11:40:40;99761.69;;;27.62;29.39
21956;BME280;11142;49.930;8.606;2023-03-18T11:43:13;99752.09;;;23.46;34.04
21956;BME280;11142;49.930;8.606;2023-03-18T11:45:44;99753.88;;;26.45;31.92
21956;BME280;11142;49.930;8.606;2023-03-18T11:48:14;99761.84;;;31.64;27.04
21956;BME280;11142;49.930;8.606;2023-03-18T11:50:56;99770.38;;;35.93;21.35
21956;BME280;11142;49.930;8.606;2023-03-18T11:53:29;99777.97;;;37.98;18.80
21956;BME280;11142;49.930;8.606;2023-03-18T11:56:02;99776.31;;;38.02;19.35
21956;BME280;11142;49.930;8.606;2023-03-18T12:01:22;99758.47;;;32.57;22.08
21956;BME280;11142;49.930;8.606;2023-03-18T12:04:02;99746.72;;;24.31;31.91
21956;BME280;11142;49.930;8.606;2023-03-18T12:06:35;99730.88;;;23.67;34.04
21956;BME280;11142;49.930;8.606;2023-03-18T12:09:05;99737.19;;;29.00;27.67
21956;BME280;11142;49.930;8.606;2023-03-18T12:11:41;99742.25;;;28.72;28.38
21956;BME280;11142;49.930;8.606;2023-03-18T12:14:13;99735.72;;;29.04;28.50
21956;BME280;11142;49.930;8.606;2023-03-18T12:16:46;99733.28;;;31.58;25.67
21956;BME280;11142;49.930;8.606;2023-03-18T12:19:23;99732.59;;;33.96;22.25
21956;BME280;11142;49.930;8.606;2023-03-18T12:22:03;99736.88;;;33.60;23.55
21956;BME280;11142;49.930;8.606;2023-03-18T12:24:42;99730.97;;;32.50;23.47
21956;BME280;11142;49.930;8.606;2023-03-18T12:27:16;99721.47;;;33.29;23.55
21956;BME280;11142;49.930;8.606;2023-03-18T12:29:48;99720.19;;;34.89;21.54
21956;BME280;11142;49.930;8.606;2023-03-18T12:32:24;99705.03;;;27.28;28.46
21956;BME280;11142;49.930;8.606;2023-03-18T12:34:58;99703.28;;;24.11;33.89
21956;BME280;11142;49.930;8.606;2023-03-18T12:37:30;99696.13;;;21.51;38.11
21956;BME280;11142;49.930;8.606;2023-03-18T12:40:12;99692.78;;;21.11;41.15
21956;BME280;11142;49.930;8.606;2023-03-18T12:42:48;99690.56;;;22.64;37.83
21956;BME280;11142;49.930;8.606;2023-03-18T12:45:19;99688.19;;;22.84;37.48
21956;BME280;11142;49.930;8.606;2023-03-18T12:47:51;99697.66;;;24.82;33.90
21956;BME280;11142;49.930;8.606;2023-03-18T12:50:22;99690.63;;;23.57;35.87
21956;BME280;11142;49.930;8.606;2023-03-18T12:52:53;99690.22;;;24.78;34.18
21956;BME280;11142;49.930;8.606;2023-03-18T12:55:24;99692.88;;;25.38;32.50
21956;BME280;11142;49.930;8.606;2023-03-18T12:57:56;99690.34;;;27.51;30.36
21956;BME280;11142;49.930;8.606;2023-03-18T13:00:28;99683.94;;;25.53;32.54
21956;BME280;11142;49.930;8.606;2023-03-18T13:02:59;99673.63;;;21.78;39.67
21956;BME280;11142;49.930;8.606;2023-03-18T13:05:39;99675.09;;;21.43;40.92
21956;BME280;11142;49.930;8.606;2023-03-18T13:10:59;99671.19;;;21.53;40.11
21956;BME280;11142;49.930;8.606;2023-03-18T13:13:30;99670.28;;;21.24;41.53
21956;BME280;11142;49.930;8.606;2023-03-18T13:16:01;99673.81;;;21.08;42.75
21956;BME280;11142;49.930;8.606;2023-03-18T13:18:34;99679.41;;;21.13;41.03
21956;BME280;11142;49.930;8.606;2023-03-18T13:21:04;99667.97;;;20.90;42.74